sensor_id;sensor_type;location;lat;lon;timestamp;temperature;humidity
81935;DHT22;71405;47.674;-2.050;2024-01-30T00:00:15;20.30;55.70
81935;DHT22;71405;47.674;-2.050;2024-01-30T00:02:41;20.30;55.70
81935;DHT22;71405;47.674;-2.050;2024-01-30T00:05:08;20.30;55.70
81935;DHT22;71405;47.674;-2.050;2024-01-30T00:07:34;20.30;55.70
81935;DHT22;71405;47.674;-2.050;2024-01-30T00:10:00;20.30;55.80
81935;DHT22;71405;47.674;-2.050;2024-01-30T00:12:25;20.30;55.70
81935;DHT22;71405;47.674;-2.050;2024-01-30T00:14:51;20.30;55.70
81935;DHT22;71405;47.674;-2.050;2024-01-30T00:17:17;20.30;55.70
81935;DHT22;71405;47.674;-2.050;2024-01-30T00:19:44;20.30;55.50
81935;DHT22;71405;47.674;-2.050;2024-01-30T00:22:10;20.30;55.60
81935;DHT22;71405;47.674;-2.050;2024-01-30T00:24:36;20.30;55.50
81935;DHT22;71405;47.674;-2.050;2024-01-30T00:27:01;20.30;55.50
81935;DHT22;71405;47.674;-2.050;2024-01-30T00:29:27;20.30;55.60
81935;DHT22;71405;47.674;-2.050;2024-01-30T00:31:55;20.30;55.90
81935;DHT22;71405;47.674;-2.050;2024-01-30T00:34:21;20.30;55.60
81935;DHT22;71405;47.674;-2.050;2024-01-30T00:36:47;20.30;55.60
81935;DHT22;71405;47.674;-2.050;2024-01-30T00:39:12;20.30;55.70
81935;DHT22;71405;47.674;-2.050;2024-01-30T00:41:40;20.30;55.80
81935;DHT22;71405;47.674;-2.050;2024-01-30T00:44:06;20.30;55.60
81935;DHT22;71405;47.674;-2.050;2024-01-30T00:46:32;20.30;55.50
81935;DHT22;71405;47.674;-2.050;2024-01-30T00:48:58;20.30;55.60
81935;DHT22;71405;47.674;-2.050;2024-01-30T00:51:23;20.30;55.60
81935;DHT22;71405;47.674;-2.050;2024-01-30T00:53:49;20.30;55.70
81935;DHT22;71405;47.674;-2.050;2024-01-30T00:56:14;20.30;56.00
81935;DHT22;71405;47.674;-2.050;2024-01-30T00:58:43;20.30;55.70
81935;DHT22;71405;47.674;-2.050;2024-01-30T01:01:09;20.30;55.70
81935;DHT22;71405;47.674;-2.050;2024-01-30T01:03:34;20.30;55.70
81935;DHT22;71405;47.674;-2.050;2024-01-30T01:06:00;20.30;55.70
81935;DHT22;71405;47.674;-2.050;2024-01-30T01:08:26;20.30;55.50
81935;DHT22;71405;47.674;-2.050;2024-01-30T01:10:52;20.30;55.50
81935;DHT22;71405;47.674;-2.050;2024-01-30T01:13:18;20.30;55.70
81935;DHT22;71405;47.674;-2.050;2024-01-30T01:15:43;20.30;55.50
81935;DHT22;71405;47.674;-2.050;2024-01-30T01:18:09;20.30;55.60
81935;DHT22;71405;47.674;-2.050;2024-01-30T01:20:34;20.30;55.50
81935;DHT22;71405;47.674;-2.050;2024-01-30T01:23:00;20.30;55.60
81935;DHT22;71405;47.674;-2.050;2024-01-30T01:25:26;20.30;55.70
81935;DHT22;71405;47.674;-2.050;2024-01-30T01:27:51;20.30;55.80
81935;DHT22;71405;47.674;-2.050;2024-01-30T01:30:18;20.30;55.70
81935;DHT22;71405;47.674;-2.050;2024-01-30T01:32:54;20.30;55.90
81935;DHT22;71405;47.674;-2.050;2024-01-30T01:35:26;20.30;55.60
81935;DHT22;71405;47.674;-2.050;2024-01-30T01:37:53;20.30;55.70
81935;DHT22;71405;47.674;-2.050;2024-01-30T01:40:25;20.30;55.60
81935;DHT22;71405;47.674;-2.050;2024-01-30T01:42:51;20.30;55.50
81935;DHT22;71405;47.674;-2.050;2024-01-30T01:45:18;20.30;55.50
81935;DHT22;71405;47.674;-2.050;2024-01-30T01:47:52;20.30;55.50
81935;DHT22;71405;47.674;-2.050;2024-01-30T01:50:19;20.30;55.50
81935;DHT22;71405;47.674;-2.050;2024-01-30T01:52:47;20.30;55.50
81935;DHT22;71405;47.674;-2.050;2024-01-30T01:55:15;20.20;55.50
81935;DHT22;71405;47.674;-2.050;2024-01-30T01:57:41;20.30;55.50
81935;DHT22;71405;47.674;-2.050;2024-01-30T02:00:08;20.30;55.50
81935;DHT22;71405;47.674;-2.050;2024-01-30T02:02:36;20.20;55.50
81935;DHT22;71405;47.674;-2.050;2024-01-30T02:05:02;20.20;55.50
81935;DHT22;71405;47.674;-2.050;2024-01-30T02:07:28;20.30;55.50
81935;DHT22;71405;47.674;-2.050;2024-01-30T02:09:54;20.20;55.90
81935;DHT22;71405;47.674;-2.050;2024-01-30T02:12:20;20.30;55.60
81935;DHT22;71405;47.674;-2.050;2024-01-30T02:14:47;20.30;55.60
81935;DHT22;71405;47.674;-2.050;2024-01-30T02:17:13;20.30;55.60
81935;DHT22;71405;47.674;-2.050;2024-01-30T02:19:39;20.30;55.50
81935;DHT22;71405;47.674;-2.050;2024-01-30T02:22:05;20.30;55.70
81935;DHT22;71405;47.674;-2.050;2024-01-30T02:24:31;20.30;55.70
81935;DHT22;71405;47.674;-2.050;2024-01-30T02:26:57;20.30;55.50
81935;DHT22;71405;47.674;-2.050;2024-01-30T02:29:22;20.30;55.60
81935;DHT22;71405;47.674;-2.050;2024-01-30T02:31:48;20.30;55.50
81935;DHT22;71405;47.674;-2.050;2024-01-30T02:34:14;20.30;55.50
81935;DHT22;71405;47.674;-2.050;2024-01-30T02:36:43;20.30;55.60
81935;DHT22;71405;47.674;-2.050;2024-01-30T02:39:09;20.20;55.50
81935;DHT22;71405;47.674;-2.050;2024-01-30T02:41:35;20.30;55.50
81935;DHT22;71405;47.674;-2.050;2024-01-30T02:44:02;20.30;55.60
81935;DHT22;71405;47.674;-2.050;2024-01-30T02:46:28;20.30;55.60
81935;DHT22;71405;47.674;-2.050;2024-01-30T02:48:53;20.30;55.50
81935;DHT22;71405;47.674;-2.050;2024-01-30T02:51:19;20.30;55.50
81935;DHT22;71405;47.674;-2.050;2024-01-30T02:53:45;20.20;55.50
81935;DHT22;71405;47.674;-2.050;2024-01-30T02:56:10;20.20;55.40
81935;DHT22;71405;47.674;-2.050;2024-01-30T02:58:37;20.30;55.40
81935;DHT22;71405;47.674;-2.050;2024-01-30T03:01:03;20.30;55.30
81935;DHT22;71405;47.674;-2.050;2024-01-30T03:03:29;20.20;55.20
81935;DHT22;71405;47.674;-2.050;2024-01-30T03:05:54;20.20;55.30
81935;DHT22;71405;47.674;-2.050;2024-01-30T03:08:20;20.20;55.20
81935;DHT22;71405;47.674;-2.050;2024-01-30T03:10:46;20.20;55.40
81935;DHT22;71405;47.674;-2.050;2024-01-30T03:13:12;20.20;55.20
81935;DHT22;71405;47.674;-2.050;2024-01-30T03:15:37;20.20;55.30
81935;DHT22;71405;47.674;-2.050;2024-01-30T03:18:03;20.20;55.30
81935;DHT22;71405;47.674;-2.050;2024-01-30T03:20:29;20.20;55.20
81935;DHT22;71405;47.674;-2.050;2024-01-30T03:22:55;20.20;55.30
81935;DHT22;71405;47.674;-2.050;2024-01-30T03:25:21;20.20;55.30
81935;DHT22;71405;47.674;-2.050;2024-01-30T03:27:47;20.20;55.20
81935;DHT22;71405;47.674;-2.050;2024-01-30T03:30:12;20.20;55.40
81935;DHT22;71405;47.674;-2.050;2024-01-30T03:32:38;20.20;55.40
81935;DHT22;71405;47.674;-2.050;2024-01-30T03:35:04;20.30;55.30
81935;DHT22;71405;47.674;-2.050;2024-01-30T03:37:30;20.20;55.40
81935;DHT22;71405;47.674;-2.050;2024-01-30T03:39:55;20.20;55.30
81935;DHT22;71405;47.674;-2.050;2024-01-30T03:42:21;20.30;55.40
81935;DHT22;71405;47.674;-2.050;2024-01-30T03:44:48;20.20;55.30
81935;DHT22;71405;47.674;-2.050;2024-01-30T03:47:13;20.20;55.30
81935;DHT22;71405;47.674;-2.050;2024-01-30T03:49:39;20.30;55.20
81935;DHT22;71405;47.674;-2.050;2024-01-30T03:52:05;20.20;55.20
81935;DHT22;71405;47.674;-2.050;2024-01-30T03:54:31;20.20;55.30
81935;DHT22;71405;47.674;-2.050;2024-01-30T03:56:56;20.20;55.20
81935;DHT22;71405;47.674;-2.050;2024-01-30T03:59:22;20.20;55.30
81935;DHT22;71405;47.674;-2.050;2024-01-30T04:01:52;20.20;55.40
81935;DHT22;71405;47.674;-2.050;2024-01-30T04:04:18;20.20;55.20
81935;DHT22;71405;47.674;-2.050;2024-01-30T04:06:45;20.20;55.20
81935;DHT22;71405;47.674;-2.050;2024-01-30T04:09:12;20.20;55.20
81935;DHT22;71405;47.674;-2.050;2024-01-30T04:11:38;20.20;55.00
81935;DHT22;71405;47.674;-2.050;2024-01-30T04:14:04;20.20;55.10
81935;DHT22;71405;47.674;-2.050;2024-01-30T04:16:30;20.20;55.00
81935;DHT22;71405;47.674;-2.050;2024-01-30T04:18:56;20.20;55.10
81935;DHT22;71405;47.674;-2.050;2024-01-30T04:21:22;20.20;55.00
81935;DHT22;71405;47.674;-2.050;2024-01-30T04:23:48;20.20;55.00
81935;DHT22;71405;47.674;-2.050;2024-01-30T04:26:14;20.20;55.00
81935;DHT22;71405;47.674;-2.050;2024-01-30T04:28:44;20.20;55.00
81935;DHT22;71405;47.674;-2.050;2024-01-30T04:31:10;20.20;55.00
81935;DHT22;71405;47.674;-2.050;2024-01-30T04:33:36;20.20;55.00
81935;DHT22;71405;47.674;-2.050;2024-01-30T04:36:02;20.20;55.00
81935;DHT22;71405;47.674;-2.050;2024-01-30T04:38:28;20.20;55.00
81935;DHT22;71405;47.674;-2.050;2024-01-30T04:40:54;20.20;55.00
81935;DHT22;71405;47.674;-2.050;2024-01-30T04:43:20;20.20;55.20
81935;DHT22;71405;47.674;-2.050;2024-01-30T04:45:45;20.20;55.10
81935;DHT22;71405;47.674;-2.050;2024-01-30T04:48:11;20.20;55.10
81935;DHT22;71405;47.674;-2.050;2024-01-30T04:50:37;20.20;55.00
81935;DHT22;71405;47.674;-2.050;2024-01-30T04:53:03;20.20;55.00
81935;DHT22;71405;47.674;-2.050;2024-01-30T04:55:28;20.20;55.00
81935;DHT22;71405;47.674;-2.050;2024-01-30T04:57:54;20.20;55.00
81935;DHT22;71405;47.674;-2.050;2024-01-30T05:00:19;20.20;55.10
81935;DHT22;71405;47.674;-2.050;2024-01-30T05:02:45;20.20;55.00
81935;DHT22;71405;47.674;-2.050;2024-01-30T05:05:11;20.20;55.10
81935;DHT22;71405;47.674;-2.050;2024-01-30T05:07:37;20.20;54.90
81935;DHT22;71405;47.674;-2.050;2024-01-30T05:10:02;20.20;55.00
81935;DHT22;71405;47.674;-2.050;2024-01-30T05:12:29;20.20;55.00
81935;DHT22;71405;47.674;-2.050;2024-01-30T05:14:54;20.20;55.10
81935;DHT22;71405;47.674;-2.050;2024-01-30T05:17:20;20.20;54.90
81935;DHT22;71405;47.674;-2.050;2024-01-30T05:19:46;20.20;55.00
81935;DHT22;71405;47.674;-2.050;2024-01-30T05:22:11;20.20;55.10
81935;DHT22;71405;47.674;-2.050;2024-01-30T05:24:41;20.20;55.00
81935;DHT22;71405;47.674;-2.050;2024-01-30T05:27:08;20.20;55.00
81935;DHT22;71405;47.674;-2.050;2024-01-30T05:29:33;20.20;54.80
81935;DHT22;71405;47.674;-2.050;2024-01-30T05:31:59;20.20;54.90
81935;DHT22;71405;47.674;-2.050;2024-01-30T05:34:24;20.20;54.80
81935;DHT22;71405;47.674;-2.050;2024-01-30T05:36:50;20.20;54.90
81935;DHT22;71405;47.674;-2.050;2024-01-30T05:39:16;20.20;54.90
81935;DHT22;71405;47.674;-2.050;2024-01-30T05:41:41;20.20;54.80
81935;DHT22;71405;47.674;-2.050;2024-01-30T05:44:07;20.20;54.70
81935;DHT22;71405;47.674;-2.050;2024-01-30T05:46:33;20.20;54.80
81935;DHT22;71405;47.674;-2.050;2024-01-30T05:48:59;20.20;54.80
81935;DHT22;71405;47.674;-2.050;2024-01-30T05:51:25;20.20;54.90
81935;DHT22;71405;47.674;-2.050;2024-01-30T05:53:50;20.20;54.70
81935;DHT22;71405;47.674;-2.050;2024-01-30T05:56:16;20.10;54.80
81935;DHT22;71405;47.674;-2.050;2024-01-30T05:58:41;20.20;54.90
81935;DHT22;71405;47.674;-2.050;2024-01-30T06:01:08;20.20;55.00
81935;DHT22;71405;47.674;-2.050;2024-01-30T06:03:34;20.20;54.80
81935;DHT22;71405;47.674;-2.050;2024-01-30T06:06:00;20.20;55.10
81935;DHT22;71405;47.674;-2.050;2024-01-30T06:08:26;20.20;55.10
81935;DHT22;71405;47.674;-2.050;2024-01-30T06:10:52;20.20;54.90
81935;DHT22;71405;47.674;-2.050;2024-01-30T06:13:17;20.20;54.80
81935;DHT22;71405;47.674;-2.050;2024-01-30T06:15:43;20.20;54.80
81935;DHT22;71405;47.674;-2.050;2024-01-30T06:18:09;20.20;55.30
81935;DHT22;71405;47.674;-2.050;2024-01-30T06:20:34;20.20;55.20
81935;DHT22;71405;47.674;-2.050;2024-01-30T06:23:01;20.20;55.10
81935;DHT22;71405;47.674;-2.050;2024-01-30T06:25:26;20.20;55.20
81935;DHT22;71405;47.674;-2.050;2024-01-30T06:27:52;20.20;55.10
81935;DHT22;71405;47.674;-2.050;2024-01-30T06:30:18;20.20;55.20
81935;DHT22;71405;47.674;-2.050;2024-01-30T06:32:44;20.20;55.30
81935;DHT22;71405;47.674;-2.050;2024-01-30T06:35:10;20.20;55.30
81935;DHT22;71405;47.674;-2.050;2024-01-30T06:37:36;20.20;55.30
81935;DHT22;71405;47.674;-2.050;2024-01-30T06:40:02;20.20;55.30
81935;DHT22;71405;47.674;-2.050;2024-01-30T06:42:30;20.20;55.30
81935;DHT22;71405;47.674;-2.050;2024-01-30T06:44:55;20.20;55.40
81935;DHT22;71405;47.674;-2.050;2024-01-30T06:47:21;20.20;55.40
81935;DHT22;71405;47.674;-2.050;2024-01-30T06:49:47;20.20;55.50
81935;DHT22;71405;47.674;-2.050;2024-01-30T06:52:12;20.20;55.60
81935;DHT22;71405;47.674;-2.050;2024-01-30T06:54:38;20.20;55.40
81935;DHT22;71405;47.674;-2.050;2024-01-30T06:57:05;20.20;55.50
81935;DHT22;71405;47.674;-2.050;2024-01-30T06:59:34;20.20;55.40
81935;DHT22;71405;47.674;-2.050;2024-01-30T07:02:00;20.20;55.40
81935;DHT22;71405;47.674;-2.050;2024-01-30T07:04:26;20.10;55.50
81935;DHT22;71405;47.674;-2.050;2024-01-30T07:06:51;20.20;55.40
81935;DHT22;71405;47.674;-2.050;2024-01-30T07:09:18;20.20;55.40
81935;DHT22;71405;47.674;-2.050;2024-01-30T07:11:44;20.20;55.40
81935;DHT22;71405;47.674;-2.050;2024-01-30T07:14:10;20.10;55.30
81935;DHT22;71405;47.674;-2.050;2024-01-30T07:16:36;20.20;55.40
81935;DHT22;71405;47.674;-2.050;2024-01-30T07:19:01;20.20;55.40
81935;DHT22;71405;47.674;-2.050;2024-01-30T07:21:28;20.20;55.00
81935;DHT22;71405;47.674;-2.050;2024-01-30T07:23:54;20.20;55.20
81935;DHT22;71405;47.674;-2.050;2024-01-30T07:26:20;20.20;55.70
81935;DHT22;71405;47.674;-2.050;2024-01-30T07:28:46;20.20;56.30
81935;DHT22;71405;47.674;-2.050;2024-01-30T07:31:12;20.20;56.50
81935;DHT22;71405;47.674;-2.050;2024-01-30T07:33:37;20.20;56.60
81935;DHT22;71405;47.674;-2.050;2024-01-30T07:36:03;20.20;56.70
81935;DHT22;71405;47.674;-2.050;2024-01-30T07:38:31;20.20;56.50
81935;DHT22;71405;47.674;-2.050;2024-01-30T07:40:57;20.20;56.70
81935;DHT22;71405;47.674;-2.050;2024-01-30T07:43:23;20.10;56.60
81935;DHT22;71405;47.674;-2.050;2024-01-30T07:45:48;20.10;56.60
81935;DHT22;71405;47.674;-2.050;2024-01-30T07:48:14;20.10;56.40
81935;DHT22;71405;47.674;-2.050;2024-01-30T07:50:40;20.10;56.50
81935;DHT22;71405;47.674;-2.050;2024-01-30T07:53:05;20.10;56.50
81935;DHT22;71405;47.674;-2.050;2024-01-30T07:55:31;20.10;56.20
81935;DHT22;71405;47.674;-2.050;2024-01-30T07:57:58;20.10;56.20
81935;DHT22;71405;47.674;-2.050;2024-01-30T08:00:26;20.10;56.40
81935;DHT22;71405;47.674;-2.050;2024-01-30T08:02:54;20.10;56.30
81935;DHT22;71405;47.674;-2.050;2024-01-30T08:05:21;20.10;56.30
81935;DHT22;71405;47.674;-2.050;2024-01-30T08:07:48;20.10;56.10
81935;DHT22;71405;47.674;-2.050;2024-01-30T08:10:14;20.10;56.10
81935;DHT22;71405;47.674;-2.050;2024-01-30T08:12:41;20.10;56.00
81935;DHT22;71405;47.674;-2.050;2024-01-30T08:15:07;20.10;55.90
81935;DHT22;71405;47.674;-2.050;2024-01-30T08:17:33;20.10;56.00
81935;DHT22;71405;47.674;-2.050;2024-01-30T08:19:59;20.10;55.60
81935;DHT22;71405;47.674;-2.050;2024-01-30T08:22:25;20.10;55.70
81935;DHT22;71405;47.674;-2.050;2024-01-30T08:24:50;20.10;55.60
81935;DHT22;71405;47.674;-2.050;2024-01-30T08:27:16;20.10;55.60
81935;DHT22;71405;47.674;-2.050;2024-01-30T08:29:42;20.10;55.50
81935;DHT22;71405;47.674;-2.050;2024-01-30T08:32:07;20.10;55.40
81935;DHT22;71405;47.674;-2.050;2024-01-30T08:34:33;20.10;55.40
81935;DHT22;71405;47.674;-2.050;2024-01-30T08:36:59;20.10;55.50
81935;DHT22;71405;47.674;-2.050;2024-01-30T08:39:24;20.10;55.50
81935;DHT22;71405;47.674;-2.050;2024-01-30T08:41:50;20.10;55.30
81935;DHT22;71405;47.674;-2.050;2024-01-30T08:44:16;20.10;55.20
81935;DHT22;71405;47.674;-2.050;2024-01-30T08:46:43;20.10;55.30
81935;DHT22;71405;47.674;-2.050;2024-01-30T08:49:10;20.10;55.10
81935;DHT22;71405;47.674;-2.050;2024-01-30T08:51:36;20.10;55.00
81935;DHT22;71405;47.674;-2.050;2024-01-30T08:54:02;20.10;55.20
81935;DHT22;71405;47.674;-2.050;2024-01-30T08:56:28;20.10;55.10
81935;DHT22;71405;47.674;-2.050;2024-01-30T08:58:54;20.10;55.00
81935;DHT22;71405;47.674;-2.050;2024-01-30T09:01:19;20.10;55.00
81935;DHT22;71405;47.674;-2.050;2024-01-30T09:03:45;20.10;54.90
81935;DHT22;71405;47.674;-2.050;2024-01-30T09:06:12;20.10;54.80
81935;DHT22;71405;47.674;-2.050;2024-01-30T09:08:39;20.00;54.20
81935;DHT22;71405;47.674;-2.050;2024-01-30T09:11:14;19.90;53.70
81935;DHT22;71405;47.674;-2.050;2024-01-30T09:13:40;19.90;53.60
81935;DHT22;71405;47.674;-2.050;2024-01-30T09:16:06;19.80;53.40
81935;DHT22;71405;47.674;-2.050;2024-01-30T09:18:32;19.80;53.50
81935;DHT22;71405;47.674;-2.050;2024-01-30T09:20:58;19.70;53.40
81935;DHT22;71405;47.674;-2.050;2024-01-30T09:23:24;19.80;53.30
81935;DHT22;71405;47.674;-2.050;2024-01-30T09:25:50;19.70;53.10
81935;DHT22;71405;47.674;-2.050;2024-01-30T09:28:17;19.70;53.10
81935;DHT22;71405;47.674;-2.050;2024-01-30T09:30:43;19.80;53.00
81935;DHT22;71405;47.674;-2.050;2024-01-30T09:33:08;19.70;52.60
81935;DHT22;71405;47.674;-2.050;2024-01-30T09:35:35;19.70;52.60
81935;DHT22;71405;47.674;-2.050;2024-01-30T09:38:02;19.70;52.70
81935;DHT22;71405;47.674;-2.050;2024-01-30T09:40:28;19.70;52.60
81935;DHT22;71405;47.674;-2.050;2024-01-30T09:42:54;19.70;52.60
81935;DHT22;71405;47.674;-2.050;2024-01-30T09:45:24;19.70;52.60
81935;DHT22;71405;47.674;-2.050;2024-01-30T09:47:50;19.70;52.40
81935;DHT22;71405;47.674;-2.050;2024-01-30T09:50:16;19.70;52.50
81935;DHT22;71405;47.674;-2.050;2024-01-30T09:52:46;19.70;52.40
81935;DHT22;71405;47.674;-2.050;2024-01-30T09:55:12;19.70;52.30
81935;DHT22;71405;47.674;-2.050;2024-01-30T09:57:38;19.70;52.20
81935;DHT22;71405;47.674;-2.050;2024-01-30T10:00:05;19.80;52.10
81935;DHT22;71405;47.674;-2.050;2024-01-30T10:02:36;19.80;51.80
81935;DHT22;71405;47.674;-2.050;2024-01-30T10:05:02;19.80;52.70
81935;DHT22;71405;47.674;-2.050;2024-01-30T10:07:28;19.90;53.10
81935;DHT22;71405;47.674;-2.050;2024-01-30T10:09:55;20.00;53.20
81935;DHT22;71405;47.674;-2.050;2024-01-30T10:12:22;20.00;53.50
81935;DHT22;71405;47.674;-2.050;2024-01-30T10:14:48;20.10;53.30
81935;DHT22;71405;47.674;-2.050;2024-01-30T10:17:13;20.10;53.50
81935;DHT22;71405;47.674;-2.050;2024-01-30T10:19:40;20.10;53.40
81935;DHT22;71405;47.674;-2.050;2024-01-30T10:22:06;20.20;53.40
81935;DHT22;71405;47.674;-2.050;2024-01-30T10:24:36;20.20;53.50
81935;DHT22;71405;47.674;-2.050;2024-01-30T10:27:02;20.20;53.50
81935;DHT22;71405;47.674;-2.050;2024-01-30T10:29:28;20.20;53.50
81935;DHT22;71405;47.674;-2.050;2024-01-30T10:32:04;20.20;53.60
81935;DHT22;71405;47.674;-2.050;2024-01-30T10:34:32;20.20;53.60
81935;DHT22;71405;47.674;-2.050;2024-01-30T10:37:11;20.20;53.50
81935;DHT22;71405;47.674;-2.050;2024-01-30T10:39:46;20.20;53.90
81935;DHT22;71405;47.674;-2.050;2024-01-30T10:42:13;20.30;53.90
81935;DHT22;71405;47.674;-2.050;2024-01-30T10:45:12;20.20;53.60
81935;DHT22;71405;47.674;-2.050;2024-01-30T10:47:40;20.30;53.90
81935;DHT22;71405;47.674;-2.050;2024-01-30T10:50:08;20.30;53.60
81935;DHT22;71405;47.674;-2.050;2024-01-30T10:52:36;20.40;53.60
81935;DHT22;71405;47.674;-2.050;2024-01-30T10:55:04;20.40;53.80
81935;DHT22;71405;47.674;-2.050;2024-01-30T10:57:34;20.30;52.20
81935;DHT22;71405;47.674;-2.050;2024-01-30T11:00:01;20.00;51.20
81935;DHT22;71405;47.674;-2.050;2024-01-30T11:02:31;19.70;50.70
81935;DHT22;71405;47.674;-2.050;2024-01-30T11:04:58;19.40;50.40
81935;DHT22;71405;47.674;-2.050;2024-01-30T11:07:28;19.20;50.40
81935;DHT22;71405;47.674;-2.050;2024-01-30T11:12:27;18.90;50.80
81935;DHT22;71405;47.674;-2.050;2024-01-30T11:15:06;18.80;50.80
81935;DHT22;71405;47.674;-2.050;2024-01-30T11:20:20;18.60;50.10
81935;DHT22;71405;47.674;-2.050;2024-01-30T11:22:47;18.60;50.20
81935;DHT22;71405;47.674;-2.050;2024-01-30T11:25:14;18.50;50.10
81935;DHT22;71405;47.674;-2.050;2024-01-30T11:27:42;18.40;50.50
81935;DHT22;71405;47.674;-2.050;2024-01-30T11:30:08;18.40;50.10
81935;DHT22;71405;47.674;-2.050;2024-01-30T11:32:34;18.40;50.40
81935;DHT22;71405;47.674;-2.050;2024-01-30T11:35:02;18.30;50.60
81935;DHT22;71405;47.674;-2.050;2024-01-30T11:37:28;18.40;50.60
81935;DHT22;71405;47.674;-2.050;2024-01-30T11:39:56;18.40;50.90
81935;DHT22;71405;47.674;-2.050;2024-01-30T11:42:23;18.60;51.10
81935;DHT22;71405;47.674;-2.050;2024-01-30T11:44:52;18.80;51.20
81935;DHT22;71405;47.674;-2.050;2024-01-30T11:47:18;19.00;51.10
81935;DHT22;71405;47.674;-2.050;2024-01-30T11:49:44;19.10;51.50
81935;DHT22;71405;47.674;-2.050;2024-01-30T11:52:10;19.20;51.30
81935;DHT22;71405;47.674;-2.050;2024-01-30T11:54:38;19.20;51.50
81935;DHT22;71405;47.674;-2.050;2024-01-30T11:57:04;19.30;51.70
81935;DHT22;71405;47.674;-2.050;2024-01-30T11:59:30;19.20;50.90
81935;DHT22;71405;47.674;-2.050;2024-01-30T12:01:56;19.10;50.40
81935;DHT22;71405;47.674;-2.050;2024-01-30T12:04:22;19.00;50.10
81935;DHT22;71405;47.674;-2.050;2024-01-30T12:06:51;18.90;50.10
81935;DHT22;71405;47.674;-2.050;2024-01-30T12:09:17;18.70;49.50
81935;DHT22;71405;47.674;-2.050;2024-01-30T12:11:46;18.60;49.40
81935;DHT22;71405;47.674;-2.050;2024-01-30T12:14:12;18.70;49.60
81935;DHT22;71405;47.674;-2.050;2024-01-30T12:16:39;18.80;49.80
81935;DHT22;71405;47.674;-2.050;2024-01-30T12:19:04;18.90;49.90
81935;DHT22;71405;47.674;-2.050;2024-01-30T12:21:30;18.90;49.80
81935;DHT22;71405;47.674;-2.050;2024-01-30T12:23:57;18.90;49.70
81935;DHT22;71405;47.674;-2.050;2024-01-30T12:26:24;18.90;49.80
81935;DHT22;71405;47.674;-2.050;2024-01-30T12:28:54;18.90;49.90
81935;DHT22;71405;47.674;-2.050;2024-01-30T12:31:26;19.00;49.80
81935;DHT22;71405;47.674;-2.050;2024-01-30T12:33:53;19.00;49.80
81935;DHT22;71405;47.674;-2.050;2024-01-30T12:36:19;19.00;49.80
81935;DHT22;71405;47.674;-2.050;2024-01-30T12:38:45;19.00;49.80
81935;DHT22;71405;47.674;-2.050;2024-01-30T12:41:10;19.00;49.70
81935;DHT22;71405;47.674;-2.050;2024-01-30T12:43:36;19.10;49.40
81935;DHT22;71405;47.674;-2.050;2024-01-30T12:46:03;19.10;49.40
81935;DHT22;71405;47.674;-2.050;2024-01-30T12:48:28;19.10;49.30
81935;DHT22;71405;47.674;-2.050;2024-01-30T12:50:58;19.10;49.10
81935;DHT22;71405;47.674;-2.050;2024-01-30T12:53:24;19.20;49.00
81935;DHT22;71405;47.674;-2.050;2024-01-30T12:55:50;19.20;49.00
81935;DHT22;71405;47.674;-2.050;2024-01-30T12:58:16;19.30;49.30
81935;DHT22;71405;47.674;-2.050;2024-01-30T13:00:42;19.40;49.00
81935;DHT22;71405;47.674;-2.050;2024-01-30T13:03:09;19.40;48.90
81935;DHT22;71405;47.674;-2.050;2024-01-30T13:05:35;19.40;48.70
81935;DHT22;71405;47.674;-2.050;2024-01-30T13:08:01;19.60;48.50
81935;DHT22;71405;47.674;-2.050;2024-01-30T13:10:27;19.90;48.10
81935;DHT22;71405;47.674;-2.050;2024-01-30T13:12:53;20.40;47.20
81935;DHT22;71405;47.674;-2.050;2024-01-30T13:15:18;21.20;46.10
81935;DHT22;71405;47.674;-2.050;2024-01-30T13:17:44;21.60;45.20
81935;DHT22;71405;47.674;-2.050;2024-01-30T13:20:13;21.40;45.30
81935;DHT22;71405;47.674;-2.050;2024-01-30T13:22:43;21.40;45.20
81935;DHT22;71405;47.674;-2.050;2024-01-30T13:25:09;21.30;45.30
81935;DHT22;71405;47.674;-2.050;2024-01-30T13:27:35;21.20;45.50
81935;DHT22;71405;47.674;-2.050;2024-01-30T13:30:01;21.10;45.60
81935;DHT22;71405;47.674;-2.050;2024-01-30T13:32:26;21.00;45.70
81935;DHT22;71405;47.674;-2.050;2024-01-30T13:34:52;20.70;46.00
81935;DHT22;71405;47.674;-2.050;2024-01-30T13:37:18;20.60;46.40
81935;DHT22;71405;47.674;-2.050;2024-01-30T13:39:43;20.80;46.10
81935;DHT22;71405;47.674;-2.050;2024-01-30T13:42:09;20.90;45.80
81935;DHT22;71405;47.674;-2.050;2024-01-30T13:44:35;20.90;46.00
81935;DHT22;71405;47.674;-2.050;2024-01-30T13:47:01;21.20;45.70
81935;DHT22;71405;47.674;-2.050;2024-01-30T13:49:27;21.60;45.20
81935;DHT22;71405;47.674;-2.050;2024-01-30T13:51:53;22.10;44.20
81935;DHT22;71405;47.674;-2.050;2024-01-30T13:54:18;22.20;44.00
81935;DHT22;71405;47.674;-2.050;2024-01-30T13:56:44;22.30;43.70
81935;DHT22;71405;47.674;-2.050;2024-01-30T13:59:10;22.50;43.30
81935;DHT22;71405;47.674;-2.050;2024-01-30T14:01:36;22.90;43.00
81935;DHT22;71405;47.674;-2.050;2024-01-30T14:04:01;22.90;42.80
81935;DHT22;71405;47.674;-2.050;2024-01-30T14:06:27;22.80;42.70
81935;DHT22;71405;47.674;-2.050;2024-01-30T14:08:53;22.40;43.20
81935;DHT22;71405;47.674;-2.050;2024-01-30T14:11:19;22.10;43.70
81935;DHT22;71405;47.674;-2.050;2024-01-30T14:13:44;21.80;44.10
81935;DHT22;71405;47.674;-2.050;2024-01-30T14:16:10;22.00;43.90
81935;DHT22;71405;47.674;-2.050;2024-01-30T14:18:36;21.80;44.00
81935;DHT22;71405;47.674;-2.050;2024-01-30T14:21:02;21.80;44.20
81935;DHT22;71405;47.674;-2.050;2024-01-30T14:23:28;21.60;44.40
81935;DHT22;71405;47.674;-2.050;2024-01-30T14:25:53;21.30;44.80
81935;DHT22;71405;47.674;-2.050;2024-01-30T14:28:19;20.90;45.30
81935;DHT22;71405;47.674;-2.050;2024-01-30T14:30:45;20.80;45.60
81935;DHT22;71405;47.674;-2.050;2024-01-30T14:33:10;20.70;45.90
81935;DHT22;71405;47.674;-2.050;2024-01-30T14:35:37;20.70;45.80
81935;DHT22;71405;47.674;-2.050;2024-01-30T14:38:02;20.60;45.80
81935;DHT22;71405;47.674;-2.050;2024-01-30T14:40:30;20.60;45.90
81935;DHT22;71405;47.674;-2.050;2024-01-30T14:42:56;20.60;45.90
81935;DHT22;71405;47.674;-2.050;2024-01-30T14:45:22;20.50;45.90
81935;DHT22;71405;47.674;-2.050;2024-01-30T14:47:47;20.30;46.00
81935;DHT22;71405;47.674;-2.050;2024-01-30T14:50:13;20.40;46.00
81935;DHT22;71405;47.674;-2.050;2024-01-30T14:52:42;20.80;45.50
81935;DHT22;71405;47.674;-2.050;2024-01-30T14:55:07;21.00;45.00
81935;DHT22;71405;47.674;-2.050;2024-01-30T14:57:42;21.30;44.70
81935;DHT22;71405;47.674;-2.050;2024-01-30T15:00:10;21.50;44.40
81935;DHT22;71405;47.674;-2.050;2024-01-30T15:02:36;21.80;44.10
81935;DHT22;71405;47.674;-2.050;2024-01-30T15:05:02;21.70;44.10
81935;DHT22;71405;47.674;-2.050;2024-01-30T15:07:28;21.40;44.30
81935;DHT22;71405;47.674;-2.050;2024-01-30T15:09:54;21.20;44.60
81935;DHT22;71405;47.674;-2.050;2024-01-30T15:12:20;20.90;45.10
81935;DHT22;71405;47.674;-2.050;2024-01-30T15:14:45;20.60;45.60